createdAt,value
2022-12-23T00:00:40.841Z,9.40
2022-12-23T00:03:07.881Z,9.43
2022-12-23T00:05:38.617Z,9.46
2022-12-23T00:08:05.674Z,9.48
2022-12-23T00:10:32.213Z,9.52
2022-12-23T00:13:17.470Z,9.49
2022-12-23T00:15:43.880Z,9.61
2022-12-23T00:18:10.288Z,9.53
2022-12-23T00:20:36.883Z,9.57
2022-12-23T00:23:06.158Z,9.51
2022-12-23T00:25:40.346Z,9.51
2022-12-23T00:28:11.669Z,9.47
2022-12-23T00:30:43.957Z,9.47
2022-12-23T00:33:10.309Z,9.48
2022-12-23T00:35:36.718Z,9.61
2022-12-23T00:38:03.144Z,9.58
2022-12-23T00:40:48.388Z,9.61
2022-12-23T00:43:14.827Z,9.62
2022-12-23T00:45:41.437Z,9.63
2022-12-23T00:48:26.760Z,9.69
2022-12-23T00:50:53.526Z,9.71
2022-12-23T00:53:20.691Z,9.68
2022-12-23T00:55:50.788Z,9.63
2022-12-23T00:58:17.985Z,9.69
2022-12-23T01:01:03.998Z,9.60
2022-12-23T01:03:49.348Z,9.67
2022-12-23T01:06:16.152Z,9.76
2022-12-23T01:08:42.992Z,9.77
2022-12-23T01:11:10.962Z,9.93
2022-12-23T01:13:37.694Z,9.83
2022-12-23T01:16:07.459Z,9.84
2022-12-23T01:18:36.324Z,10.00
2022-12-23T01:21:03.919Z,10.01
2022-12-23T01:23:30.374Z,10.03
2022-12-23T01:25:58.375Z,10.11
2022-12-23T01:28:24.965Z,10.09
2022-12-23T01:30:51.453Z,10.11
2022-12-23T01:33:17.896Z,9.99
2022-12-23T01:35:44.372Z,10.17
2022-12-23T01:38:10.828Z,10.23
2022-12-23T01:40:37.693Z,10.26
2022-12-23T01:43:04.120Z,10.14
2022-12-23T01:45:33.750Z,10.16
2022-12-23T01:48:02.434Z,10.17
2022-12-23T01:50:32.089Z,10.15
2022-12-23T01:53:08.223Z,10.19
2022-12-23T01:55:45.101Z,10.18
2022-12-23T01:58:16.812Z,10.26
2022-12-23T02:01:02.095Z,10.31
2022-12-23T02:03:44.088Z,10.26
2022-12-23T02:06:32.264Z,10.24
2022-12-23T02:09:17.125Z,10.33
2022-12-23T02:11:43.588Z,10.32
2022-12-23T02:14:47.329Z,10.40
2022-12-23T02:17:24.679Z,10.45
2022-12-23T02:20:10.039Z,10.40
2022-12-23T02:22:36.408Z,10.47
2022-12-23T02:25:29.272Z,10.26
2022-12-23T02:27:58.650Z,10.49
2022-12-23T02:30:25.124Z,10.27
2022-12-23T02:33:10.161Z,10.32
2022-12-23T02:35:55.349Z,10.33
2022-12-23T02:38:26.469Z,10.45
2022-12-23T02:40:52.855Z,10.44
2022-12-23T02:43:26.172Z,10.43
2022-12-23T02:45:52.600Z,10.54
2022-12-23T02:48:27.324Z,10.79
2022-12-23T02:50:54.724Z,10.60
2022-12-23T02:53:25.060Z,10.73
2022-12-23T02:55:53.233Z,10.67
2022-12-23T02:58:22.146Z,10.77
2022-12-23T03:00:49.772Z,10.72
2022-12-23T03:03:17.110Z,10.83
2022-12-23T03:05:45.143Z,10.82
2022-12-23T03:08:24.199Z,10.79
2022-12-23T03:11:07.726Z,10.89
2022-12-23T03:13:42.649Z,10.95
2022-12-23T03:16:13.475Z,11.05
2022-12-23T03:18:42.923Z,10.99
2022-12-23T03:21:14.351Z,10.93
2022-12-23T03:23:43.690Z,11.10
2022-12-23T03:26:13.232Z,11.09
2022-12-23T03:28:39.656Z,11.05
2022-12-23T03:31:08.030Z,10.85
2022-12-23T03:33:37.209Z,10.93
2022-12-23T03:36:09.270Z,10.87
2022-12-23T03:38:38.895Z,10.88
2022-12-23T03:41:07.781Z,10.77
2022-12-23T03:43:37.056Z,10.78
2022-12-23T03:46:07.091Z,10.85
2022-12-23T03:48:39.961Z,10.84
2022-12-23T03:51:10.988Z,10.85
2022-12-23T03:54:03.833Z,10.96
2022-12-23T03:56:39.243Z,11.03
2022-12-23T03:59:17.663Z,11.06
2022-12-23T04:02:02.560Z,10.86
2022-12-23T04:04:40.255Z,10.99
2022-12-23T04:07:13.316Z,11.02
2022-12-23T04:09:40.590Z,11.13
2022-12-23T04:12:07.342Z,11.25
2022-12-23T04:14:35.214Z,11.33
2022-12-23T04:17:01.809Z,11.18
2022-12-23T04:19:28.249Z,11.11
2022-12-23T04:21:56.216Z,11.14
2022-12-23T04:24:22.775Z,11.27
2022-12-23T04:26:49.226Z,11.24
2022-12-23T04:29:15.663Z,11.28
2022-12-23T04:31:42.151Z,11.39
2022-12-23T04:34:08.634Z,11.37
2022-12-23T04:36:35.470Z,11.47
2022-12-23T04:39:01.872Z,11.40
2022-12-23T04:41:28.496Z,11.36
2022-12-23T04:43:54.934Z,11.17
2022-12-23T04:46:21.402Z,11.17
2022-12-23T04:48:47.945Z,11.29
2022-12-23T04:51:14.383Z,11.46
2022-12-23T04:53:40.891Z,11.48
2022-12-23T04:56:07.303Z,11.43
2022-12-23T04:58:33.801Z,11.45
2022-12-23T05:01:01.502Z,11.40
2022-12-23T05:03:28.092Z,11.33
2022-12-23T05:05:54.627Z,11.29
2022-12-23T05:08:21.047Z,11.34
2022-12-23T05:10:47.610Z,11.29
2022-12-23T05:13:14.060Z,11.36
2022-12-23T05:15:40.560Z,11.33
2022-12-23T05:18:06.987Z,11.35
2022-12-23T05:20:33.425Z,11.49
2022-12-23T05:22:59.848Z,11.40
2022-12-23T05:25:26.266Z,11.34
2022-12-23T05:27:52.720Z,11.49
2022-12-23T05:30:19.215Z,11.42
2022-12-23T05:32:45.811Z,11.47
2022-12-23T05:35:12.229Z,11.39
2022-12-23T05:37:38.736Z,11.40
2022-12-23T05:40:05.492Z,11.43
2022-12-23T05:42:32.251Z,11.30
2022-12-23T05:44:58.653Z,11.44
2022-12-23T05:47:25.084Z,11.60
2022-12-23T05:49:51.595Z,11.53
2022-12-23T05:52:18.090Z,11.54
2022-12-23T05:54:44.463Z,11.62
2022-12-23T05:57:10.941Z,11.59
2022-12-23T05:59:37.423Z,11.47
2022-12-23T06:02:04.163Z,11.33
2022-12-23T06:04:30.778Z,11.36
2022-12-23T06:06:57.456Z,11.36
2022-12-23T06:09:23.948Z,11.37
2022-12-23T06:11:50.391Z,11.43
2022-12-23T06:14:16.815Z,11.41
2022-12-23T06:16:43.376Z,11.29
2022-12-23T06:19:09.829Z,11.35
2022-12-23T06:21:39.387Z,11.37
2022-12-23T06:24:06.027Z,11.37
2022-12-23T06:26:33.832Z,11.58
2022-12-23T06:29:00.217Z,11.46
2022-12-23T06:31:26.721Z,11.22
2022-12-23T06:33:53.441Z,11.25
2022-12-23T06:36:19.833Z,11.08
2022-12-23T06:38:46.253Z,11.09
2022-12-23T06:41:12.667Z,11.06
2022-12-23T06:43:39.182Z,11.09
2022-12-23T06:46:05.712Z,11.22
2022-12-23T06:48:32.241Z,11.05
2022-12-23T06:50:58.689Z,11.06
2022-12-23T06:53:25.302Z,11.16
2022-12-23T06:55:59.055Z,10.99
2022-12-23T06:58:25.430Z,10.99
2022-12-23T07:00:51.885Z,11.02
2022-12-23T07:03:18.430Z,11.06
2022-12-23T07:05:48.429Z,10.99
2022-12-23T07:08:14.902Z,11.04
2022-12-23T07:10:41.406Z,11.07
2022-12-23T07:13:07.787Z,10.94
2022-12-23T07:15:34.180Z,11.08
2022-12-23T07:18:00.592Z,11.10
2022-12-23T07:20:27.131Z,11.04
2022-12-23T07:22:54.403Z,10.88
2022-12-23T07:25:21.136Z,11.02
2022-12-23T07:27:47.549Z,11.08
2022-12-23T07:30:14.064Z,11.03
2022-12-23T07:32:40.418Z,11.04
2022-12-23T07:35:07.112Z,11.26
2022-12-23T07:37:33.509Z,11.26
2022-12-23T07:40:04.995Z,11.13
2022-12-23T07:42:44.886Z,11.21
2022-12-23T07:45:12.363Z,11.32
2022-12-23T07:47:38.775Z,11.43
2022-12-23T07:50:05.599Z,11.60
2022-12-23T07:52:31.992Z,11.57
2022-12-23T07:54:58.426Z,11.47
2022-12-23T07:57:25.144Z,11.47
2022-12-23T07:59:51.567Z,11.61
2022-12-23T08:02:18.163Z,11.84
2022-12-23T08:04:46.451Z,11.93
2022-12-23T08:07:13.468Z,11.87
2022-12-23T08:09:39.893Z,11.60
2022-12-23T08:12:06.527Z,11.72
2022-12-23T08:14:32.959Z,11.83
2022-12-23T08:16:59.505Z,11.66
2022-12-23T08:19:25.983Z,11.50
2022-12-23T08:21:52.463Z,11.48
2022-12-23T08:24:18.884Z,11.46
2022-12-23T08:26:45.330Z,11.41
2022-12-23T08:29:11.850Z,11.50
2022-12-23T08:31:38.571Z,11.36
2022-12-23T08:34:04.980Z,11.40
2022-12-23T08:36:32.491Z,11.36
2022-12-23T08:39:00.153Z,11.40
2022-12-23T08:41:28.544Z,11.46
2022-12-23T08:43:55.464Z,11.41
2022-12-23T08:46:23.695Z,11.54
2022-12-23T08:48:50.908Z,11.53
2022-12-23T08:51:18.644Z,11.60
2022-12-23T08:53:45.201Z,11.66
2022-12-23T08:56:13.466Z,11.89
2022-12-23T08:58:40.913Z,11.80
2022-12-23T09:01:08.619Z,11.83
2022-12-23T09:03:35.649Z,11.81
2022-12-23T09:06:05.873Z,11.83
2022-12-23T09:08:32.482Z,11.84
2022-12-23T09:10:58.891Z,11.96
2022-12-23T09:13:32.978Z,11.97
2022-12-23T09:16:02.187Z,12.09
2022-12-23T09:18:28.655Z,11.98
2022-12-23T09:20:58.825Z,12.03
2022-12-23T09:23:25.240Z,12.02
2022-12-23T09:25:51.771Z,12.04
2022-12-23T09:28:18.173Z,11.93
2022-12-23T09:30:44.648Z,12.01
2022-12-23T09:33:11.159Z,11.93
2022-12-23T09:35:37.646Z,11.92
2022-12-23T09:38:07.573Z,11.93
2022-12-23T09:40:36.972Z,11.84
2022-12-23T09:43:22.084Z,11.89
2022-12-23T09:46:08.412Z,11.91
2022-12-23T09:48:40.886Z,11.83
2022-12-23T09:51:09.495Z,11.98
2022-12-23T09:53:56.125Z,11.96
2022-12-23T09:56:27.727Z,12.01
2022-12-23T09:59:14.641Z,11.90
2022-12-23T10:01:46.859Z,12.10
2022-12-23T10:04:22.970Z,12.09
2022-12-23T10:07:03.155Z,12.11
2022-12-23T10:09:32.659Z,12.10
2022-12-23T10:11:59.770Z,12.18
2022-12-23T10:14:31.860Z,12.05
2022-12-23T10:17:17.284Z,12.15
2022-12-23T10:22:41.779Z,12.30
2022-12-23T10:25:17.335Z,12.30
2022-12-23T10:27:44.307Z,12.32
2022-12-23T10:30:34.351Z,12.21
2022-12-23T10:33:02.303Z,12.18
2022-12-23T10:35:45.682Z,12.17
2022-12-23T10:38:29.056Z,12.22
2022-12-23T10:41:14.150Z,12.03
2022-12-23T10:44:05.478Z,12.11
2022-12-23T10:46:34.750Z,12.20
2022-12-23T10:49:07.454Z,12.36
2022-12-23T10:51:48.937Z,12.12
2022-12-23T10:54:24.715Z,12.43
2022-12-23T10:56:51.456Z,12.33
2022-12-23T10:59:29.353Z,12.50
2022-12-23T11:02:08.256Z,12.41
2022-12-23T11:04:35.743Z,12.35
2022-12-23T11:07:42.032Z,12.51
2022-12-23T11:10:05.192Z,12.72
2022-12-23T11:12:57.869Z,12.46
2022-12-23T11:15:35.605Z,12.59
2022-12-23T11:18:03.231Z,12.60
2022-12-23T11:20:30.122Z,12.51
2022-12-23T11:22:59.760Z,12.43
2022-12-23T11:25:40.665Z,12.66
2022-12-23T11:28:10.792Z,12.36
2022-12-23T11:30:56.907Z,12.47
2022-12-23T11:33:31.628Z,12.40
2022-12-23T11:36:03.471Z,12.35
2022-12-23T11:38:30.148Z,12.42
2022-12-23T11:40:56.902Z,12.42
2022-12-23T11:43:25.268Z,12.38
2022-12-23T11:46:11.795Z,12.43
2022-12-23T11:48:38.717Z,12.36
2022-12-23T11:51:05.244Z,12.47
2022-12-23T11:53:32.292Z,12.50
2022-12-23T11:56:10.062Z,12.70
2022-12-23T11:58:51.159Z,12.34
2022-12-23T12:01:23.103Z,12.41
2022-12-23T12:03:53.547Z,12.68
2022-12-23T12:06:20.445Z,12.56
2022-12-23T12:08:49.434Z,12.40
2022-12-23T12:11:23.229Z,12.34
2022-12-23T12:13:52.698Z,12.50
2022-12-23T12:16:31.537Z,12.46
2022-12-23T12:19:01.996Z,12.58
2022-12-23T12:21:30.340Z,12.51
2022-12-23T12:24:17.140Z,12.63
2022-12-23T12:26:47.067Z,12.75
2022-12-23T12:29:32.728Z,12.84
2022-12-23T12:32:00.155Z,12.65
2022-12-23T12:34:26.560Z,12.59
2022-12-23T12:37:00.687Z,12.82
2022-12-23T12:39:30.214Z,12.64
2022-12-23T12:42:17.012Z,12.59
2022-12-23T12:44:50.926Z,12.68
2022-12-23T12:47:52.268Z,12.73
2022-12-23T12:50:16.777Z,12.43
2022-12-23T12:52:43.709Z,12.42
2022-12-23T12:55:28.517Z,12.43
2022-12-23T12:57:54.934Z,12.44
2022-12-23T13:00:23.248Z,12.37
2022-12-23T13:03:08.223Z,12.31
2022-12-23T13:05:54.426Z,12.45
2022-12-23T13:08:39.951Z,12.43
2022-12-23T13:11:16.293Z,12.33
2022-12-23T13:13:42.640Z,12.59
2022-12-23T13:16:12.201Z,12.58
2022-12-23T13:18:45.431Z,12.60
2022-12-23T13:21:16.648Z,12.47
2022-12-23T13:24:02.011Z,12.58
2022-12-23T13:26:37.077Z,12.41
2022-12-23T13:29:16.024Z,12.46
2022-12-23T13:31:49.579Z,12.42
2022-12-23T13:34:34.701Z,12.42
2022-12-23T13:37:16.897Z,12.31
2022-12-23T13:39:53.839Z,12.45
2022-12-23T13:42:27.724Z,12.37
2022-12-23T13:44:55.276Z,12.37
2022-12-23T13:47:33.884Z,12.34
2022-12-23T13:50:12.168Z,12.48
2022-12-23T13:52:49.909Z,12.49
2022-12-23T13:55:24.711Z,12.49
2022-12-23T13:57:54.122Z,12.53
2022-12-23T14:00:24.504Z,12.54
2022-12-23T14:02:52.284Z,12.55
2022-12-23T14:05:31.152Z,12.65
2022-12-23T14:08:02.469Z,12.51
2022-12-23T14:10:30.041Z,12.62
2022-12-23T14:13:01.624Z,12.61
2022-12-23T14:15:31.573Z,12.63
2022-12-23T14:18:04.355Z,12.59
2022-12-23T14:20:31.351Z,12.63
2022-12-23T14:23:00.759Z,12.47
2022-12-23T14:25:43.369Z,12.42
2022-12-23T14:28:16.151Z,12.54
2022-12-23T14:30:46.634Z,12.33
2022-12-23T14:33:22.614Z,12.50
2022-12-23T14:35:50.777Z,12.35
2022-12-23T14:38:26.495Z,12.49
2022-12-23T14:40:54.702Z,12.33
2022-12-23T14:43:40.096Z,12.40
2022-12-23T14:46:22.853Z,12.41
2022-12-23T14:48:49.953Z,12.43
2022-12-23T14:51:42.708Z,12.47
2022-12-23T14:54:09.074Z,12.40
2022-12-23T14:56:38.517Z,12.48
2022-12-23T14:59:17.276Z,12.58
2022-12-23T15:01:48.757Z,12.48
2022-12-23T15:04:26.047Z,12.49
2022-12-23T15:06:55.493Z,12.43
2022-12-23T15:09:26.986Z,12.48
2022-12-23T15:11:54.938Z,12.44
2022-12-23T15:14:30.314Z,12.43
2022-12-23T15:16:56.742Z,12.32
2022-12-23T15:19:25.522Z,12.46
2022-12-23T15:22:13.534Z,12.52
2022-12-23T15:24:46.220Z,12.40
2022-12-23T15:27:27.394Z,12.32
2022-12-23T15:29:55.056Z,12.42
2022-12-23T15:32:23.446Z,12.34
2022-12-23T15:34:50.946Z,12.30
2022-12-23T15:37:19.119Z,12.38
2022-12-23T15:39:50.085Z,12.41
2022-12-23T15:42:38.490Z,12.38
2022-12-23T15:45:28.579Z,12.43
2022-12-23T15:47:55.051Z,12.39
2022-12-23T15:50:21.454Z,12.52
2022-12-23T15:52:49.056Z,12.58
2022-12-23T15:55:20.579Z,12.62
2022-12-23T15:57:50.437Z,12.77
2022-12-23T16:00:28.890Z,12.68
2022-12-23T16:03:01.535Z,12.60
2022-12-23T16:05:33.698Z,12.68
2022-12-23T16:08:11.654Z,12.56
2022-12-23T16:10:38.491Z,12.37
2022-12-23T16:13:04.912Z,12.43
2022-12-23T16:15:32.965Z,12.33
2022-12-23T16:18:18.308Z,12.50
2022-12-23T16:20:46.969Z,12.56
2022-12-23T16:23:13.615Z,12.42
2022-12-23T16:25:43.034Z,12.67
2022-12-23T16:28:17.990Z,12.57
2022-12-23T16:30:46.725Z,12.53
2022-12-23T16:33:33.361Z,12.54
2022-12-23T16:36:15.007Z,12.39
2022-12-23T16:38:41.480Z,12.49
2022-12-23T16:41:08.359Z,12.46
2022-12-23T16:43:34.812Z,12.56
2022-12-23T16:46:01.730Z,12.55
2022-12-23T16:48:33.218Z,12.58
2022-12-23T16:51:00.002Z,12.50
2022-12-23T16:53:26.717Z,12.52
2022-12-23T16:55:59.993Z,12.33
2022-12-23T16:58:27.140Z,12.50
2022-12-23T17:00:54.053Z,12.69
2022-12-23T17:03:20.627Z,12.48
2022-12-23T17:05:47.751Z,12.58
2022-12-23T17:08:14.437Z,12.49
2022-12-23T17:10:41.495Z,12.69
2022-12-23T17:13:10.150Z,12.46
2022-12-23T17:15:36.604Z,12.65
2022-12-23T17:18:03.352Z,12.50
2022-12-23T17:20:30.444Z,12.34
2022-12-23T17:22:59.128Z,12.39
2022-12-23T17:25:26.714Z,12.27
2022-12-23T17:27:53.618Z,12.44
2022-12-23T17:30:21.455Z,12.29
2022-12-23T17:32:52.564Z,12.40
2022-12-23T17:35:20.781Z,12.28
2022-12-23T17:37:47.209Z,12.37
2022-12-23T17:40:14.232Z,12.32
2022-12-23T17:42:41.109Z,12.33
2022-12-23T17:45:23.445Z,12.36
2022-12-23T17:47:49.936Z,12.47
2022-12-23T17:50:16.525Z,12.31
2022-12-23T17:52:42.923Z,12.34
2022-12-23T17:55:20.629Z,12.41
2022-12-23T17:57:47.313Z,12.55
2022-12-23T18:00:18.644Z,12.40
2022-12-23T18:02:51.822Z,12.36
2022-12-23T18:05:26.427Z,12.42
2022-12-23T18:07:53.644Z,12.33
2022-12-23T18:10:22.401Z,12.27
2022-12-23T18:12:54.516Z,12.40
2022-12-23T18:15:24.976Z,12.41
2022-12-23T18:17:51.897Z,12.42
2022-12-23T18:20:20.335Z,12.40
2022-12-23T18:22:48.028Z,12.52
2022-12-23T18:25:15.938Z,12.58
2022-12-23T18:27:42.348Z,12.54
2022-12-23T18:30:09.484Z,12.37
2022-12-23T18:32:35.975Z,12.36
2022-12-23T18:35:02.417Z,12.39
2022-12-23T18:37:28.871Z,12.32
2022-12-23T18:39:55.330Z,12.40
2022-12-23T18:42:21.778Z,12.20
2022-12-23T18:44:48.488Z,12.27
2022-12-23T18:47:14.969Z,12.44
2022-12-23T18:49:41.858Z,12.66
2022-12-23T18:52:12.491Z,12.70
2022-12-23T18:54:39.461Z,12.73
2022-12-23T18:57:06.242Z,12.68
2022-12-23T18:59:34.160Z,12.50
2022-12-23T19:02:00.806Z,12.48
2022-12-23T19:04:27.494Z,12.44
2022-12-23T19:06:54.639Z,12.41
2022-12-23T19:09:21.965Z,12.56
2022-12-23T19:11:49.175Z,12.51
2022-12-23T19:14:15.623Z,12.66
2022-12-23T19:16:47.554Z,12.63
2022-12-23T19:19:17.539Z,12.75
2022-12-23T19:21:43.977Z,12.54
2022-12-23T19:24:10.456Z,12.37
2022-12-23T19:26:36.959Z,12.43
2022-12-23T19:29:03.335Z,12.50
2022-12-23T19:31:29.960Z,12.55
2022-12-23T19:33:56.667Z,12.46
2022-12-23T19:36:23.462Z,12.34
2022-12-23T19:38:50.030Z,12.41
2022-12-23T19:41:16.671Z,12.38
2022-12-23T19:43:44.036Z,12.44
2022-12-23T19:46:11.502Z,12.50
2022-12-23T19:48:38.255Z,12.56
2022-12-23T19:51:06.103Z,12.44
2022-12-23T19:53:33.016Z,12.33
2022-12-23T19:56:00.754Z,12.43
2022-12-23T19:58:27.379Z,12.47
2022-12-23T20:01:04.003Z,12.42
2022-12-23T20:03:30.534Z,12.05
2022-12-23T20:05:56.996Z,12.03
2022-12-23T20:08:23.653Z,12.08
2022-12-23T20:10:50.298Z,12.14
2022-12-23T20:13:16.713Z,11.86
2022-12-23T20:15:43.152Z,11.93
2022-12-23T20:18:10.046Z,11.93
2022-12-23T20:20:37.656Z,11.87
2022-12-23T20:23:04.114Z,12.15
2022-12-23T20:25:30.520Z,12.14
2022-12-23T20:27:56.929Z,12.25
2022-12-23T20:30:23.475Z,12.24
2022-12-23T20:32:49.978Z,12.35
2022-12-23T20:35:16.375Z,12.36
2022-12-23T20:37:42.804Z,12.34
2022-12-23T20:40:11.091Z,12.05
2022-12-23T20:42:37.541Z,12.00
2022-12-23T20:45:04.349Z,12.01
2022-12-23T20:47:30.749Z,12.03
2022-12-23T20:49:57.519Z,12.03
2022-12-23T20:52:25.813Z,12.12
2022-12-23T20:54:52.211Z,12.30
2022-12-23T20:57:19.221Z,12.17
2022-12-23T20:59:45.846Z,12.07
2022-12-23T21:02:13.218Z,12.01
2022-12-23T21:04:39.711Z,12.17
2022-12-23T21:07:06.190Z,12.05
2022-12-23T21:09:32.883Z,12.12
2022-12-23T21:11:59.422Z,11.98
2022-12-23T21:14:25.878Z,11.97
2022-12-23T21:16:52.798Z,11.83
2022-12-23T21:19:20.648Z,11.94
2022-12-23T21:21:47.594Z,11.94
2022-12-23T21:24:14.046Z,12.11
2022-12-23T21:26:40.923Z,11.98
2022-12-23T21:29:08.318Z,11.75
2022-12-23T21:31:35.984Z,11.83
2022-12-23T21:34:02.543Z,11.67
2022-12-23T21:36:33.197Z,11.55
2022-12-23T21:38:59.654Z,11.61
2022-12-23T21:41:30.202Z,11.51
2022-12-23T21:43:57.608Z,11.65
2022-12-23T21:46:24.595Z,11.69
2022-12-23T21:48:51.513Z,11.50
2022-12-23T21:51:18.006Z,11.55
2022-12-23T21:53:45.317Z,11.54
2022-12-23T21:56:14.245Z,11.51
2022-12-23T21:58:40.816Z,11.62
2022-12-23T22:01:11.838Z,11.74
2022-12-23T22:03:38.765Z,11.86
2022-12-23T22:06:10.757Z,11.69
2022-12-23T22:08:37.805Z,11.85
2022-12-23T22:11:15.189Z,11.67
2022-12-23T22:13:41.905Z,11.92
2022-12-23T22:16:12.394Z,12.05
2022-12-23T22:18:39.301Z,11.60
2022-12-23T22:21:06.956Z,11.36
2022-12-23T22:23:33.588Z,11.32
2022-12-23T22:26:00.224Z,11.28
2022-12-23T22:28:26.945Z,11.56
2022-12-23T22:30:53.552Z,11.48
2022-12-23T22:33:21.138Z,11.54
2022-12-23T22:35:55.629Z,11.19
2022-12-23T22:38:22.100Z,11.30
2022-12-23T22:40:51.968Z,11.35
2022-12-23T22:43:18.711Z,11.50
2022-12-23T22:45:45.628Z,11.34
2022-12-23T22:48:12.188Z,11.28
2022-12-23T22:50:39.009Z,11.33
2022-12-23T22:53:05.608Z,11.08
2022-12-23T22:55:32.021Z,10.83
2022-12-23T22:57:58.433Z,10.78
2022-12-23T23:00:24.891Z,11.09
2022-12-23T23:02:51.330Z,10.98
2022-12-23T23:05:17.843Z,10.87
2022-12-23T23:07:44.332Z,10.86
2022-12-23T23:10:12.025Z,10.95
2022-12-23T23:12:38.534Z,10.93
2022-12-23T23:15:05.190Z,10.89
2022-12-23T23:17:31.684Z,10.80
2022-12-23T23:19:58.717Z,11.13
2022-12-23T23:22:25.457Z,10.89
2022-12-23T23:24:52.246Z,11.04
2022-12-23T23:27:18.774Z,11.01
2022-12-23T23:29:45.223Z,11.14
2022-12-23T23:32:11.737Z,11.12
2022-12-23T23:34:38.289Z,11.28
2022-12-23T23:37:05.141Z,10.89
2022-12-23T23:39:31.690Z,11.31
2022-12-23T23:41:58.153Z,11.31
2022-12-23T23:44:24.901Z,10.71
2022-12-23T23:46:51.484Z,10.83
2022-12-23T23:49:17.919Z,10.68
2022-12-23T23:51:44.678Z,10.93
2022-12-23T23:54:11.294Z,10.79
2022-12-23T23:56:39.393Z,11.02
2022-12-23T23:59:06.639Z,11.07
